Time;durP1;ratioP1;P1;durP2;ratioP2;P2;SDS_P1;SDS_P2;PMS_P1;PMS_P2;Temp;Humidity;BMP_temperature;BMP_pressure;BME280_temperature;BME280_humidity;BME280_pressure;Samples;Min_cycle;Max_cycle;Signal;HPM_P1;HPM_P2
2022/01/19 00:00:09;;;;;;;7.70;4.73;;;2.50;99.90;;;;;;5018558;28;20214;-76
2022/01/19 00:02:34;;;;;;;8.33;4.40;;;2.50;99.90;;;;;;5036173;28;20263;-75
2022/01/19 00:05:00;;;;;;;9.57;4.67;;;2.40;99.90;;;;;;5036114;28;20226;-76
2022/01/19 00:07:25;;;;;;;11.13;4.63;;;2.40;99.90;;;;;;5018519;28;20184;-77
2022/01/19 00:09:51;;;;;;;6.47;4.37;;;2.30;99.90;;;;;;5036259;28;20208;-76
2022/01/19 00:12:16;;;;;;;5.30;3.90;;;2.30;99.90;;;;;;5018484;28;20186;-76
2022/01/19 00:14:42;;;;;;;10.37;4.67;;;2.30;99.90;;;;;;5018453;28;20176;-75
2022/01/19 00:17:08;;;;;;;7.37;4.20;;;2.30;99.90;;;;;;5018634;28;20188;-76
2022/01/19 00:19:33;;;;;;;8.20;4.47;;;2.20;99.90;;;;;;5035623;28;20211;-76
2022/01/19 00:21:59;;;;;;;7.37;4.23;;;2.20;99.90;;;;;;5036050;28;20179;-76
2022/01/19 00:24:24;;;;;;;12.07;5.10;;;2.10;99.90;;;;;;5035431;28;20188;-76
2022/01/19 00:26:50;;;;;;;9.43;4.80;;;2.10;99.90;;;;;;5017760;28;20230;-76
2022/01/19 00:29:15;;;;;;;9.20;4.97;;;2.00;99.90;;;;;;5035410;28;20212;-76
2022/01/19 00:31:41;;;;;;;9.83;4.80;;;2.00;99.90;;;;;;5035536;28;20181;-76
2022/01/19 00:34:06;;;;;;;7.27;4.77;;;1.90;99.90;;;;;;5036084;28;20188;-76
2022/01/19 00:36:32;;;;;;;9.20;4.53;;;1.90;99.90;;;;;;5018085;28;20318;-76
2022/01/19 00:38:57;;;;;;;6.83;4.93;;;1.90;99.90;;;;;;5017269;28;20215;-76
2022/01/19 00:41:23;;;;;;;7.23;4.30;;;1.80;99.90;;;;;;5017815;28;20341;-76
2022/01/19 00:43:48;;;;;;;10.43;4.40;;;1.80;99.90;;;;;;5035181;28;20199;-76
2022/01/19 00:46:14;;;;;;;12.13;5.23;;;1.80;99.90;;;;;;5035641;28;20724;-76
2022/01/19 00:48:41;;;;;;;12.77;5.10;;;1.80;99.90;;;;;;5035596;28;20254;-76
2022/01/19 00:51:07;;;;;;;10.37;5.03;;;1.80;99.90;;;;;;5035354;28;20207;-76
2022/01/19 00:53:32;;;;;;;9.73;5.07;;;1.80;99.90;;;;;;5035248;28;20185;-76
2022/01/19 00:55:58;;;;;;;12.10;5.83;;;1.80;99.90;;;;;;5035535;28;20181;-76
2022/01/19 00:58:24;;;;;;;9.57;4.80;;;1.80;99.90;;;;;;5017595;28;20654;-75
2022/01/19 01:00:50;;;;;;;10.90;5.23;;;1.80;99.90;;;;;;5017182;28;20208;-76
2022/01/19 01:03:15;;;;;;;8.60;4.90;;;1.80;99.90;;;;;;5035602;28;20191;-76
2022/01/19 01:05:42;;;;;;;10.57;5.37;;;1.80;99.90;;;;;;5017367;28;20192;-75
2022/01/19 01:08:08;;;;;;;8.67;5.37;;;1.80;99.90;;;;;;5035008;28;20681;-76
2022/01/19 01:10:41;;;;;;;9.63;5.40;;;1.70;99.90;;;;;;5017221;28;20215;-76
2022/01/19 01:13:21;;;;;;;7.10;4.93;;;1.80;99.90;;;;;;5035091;28;20153;-76
2022/01/19 01:18:24;;;;;;;11.87;5.97;;;1.70;99.90;;;;;;5035152;28;20160;-76
2022/01/19 01:20:52;;;;;;;10.87;5.90;;;1.70;99.90;;;;;;5017027;28;20596;-76
2022/01/19 01:23:20;;;;;;;9.47;5.80;;;1.80;99.90;;;;;;5035645;28;20204;-77
2022/01/19 01:25:46;;;;;;;10.83;5.80;;;1.70;99.90;;;;;;5035224;28;20185;-76
2022/01/19 01:28:13;;;;;;;7.83;5.47;;;1.70;99.90;;;;;;5017514;28;20188;-76
2022/01/19 01:30:39;;;;;;;12.37;5.80;;;1.70;99.90;;;;;;5017271;28;20220;-76
2022/01/19 01:33:05;;;;;;;8.00;5.73;;;1.60;99.90;;;;;;5034839;28;20251;-77
2022/01/19 01:35:31;;;;;;;7.47;5.03;;;1.60;99.90;;;;;;5017123;28;20650;-77
2022/01/19 01:37:57;;;;;;;7.40;4.87;;;1.50;99.90;;;;;;5037701;28;20723;-76
2022/01/19 01:40:25;;;;;;;6.93;4.40;;;1.50;99.90;;;;;;5020183;28;20251;-77
2022/01/19 01:42:55;;;;;;;8.40;4.37;;;1.50;99.90;;;;;;5037440;28;20183;-76
2022/01/19 01:45:26;;;;;;;7.03;4.40;;;1.50;99.90;;;;;;5019734;28;20583;-76
2022/01/19 01:48:02;;;;;;;10.70;4.83;;;1.40;99.90;;;;;;5037155;28;20255;-76
2022/01/19 01:53:28;;;;;;;8.30;4.80;;;1.40;99.90;;;;;;5037662;28;20258;-76
2022/01/19 01:55:57;;;;;;;7.23;4.50;;;1.40;99.90;;;;;;5038353;28;20247;-76
2022/01/19 01:58:23;;;;;;;8.67;4.57;;;1.40;99.90;;;;;;5020585;28;20242;-76
2022/01/19 02:00:49;;;;;;;7.20;4.53;;;1.30;99.90;;;;;;5037988;28;20208;-76
2022/01/19 02:03:15;;;;;;;8.70;4.20;;;1.30;99.90;;;;;;5020243;28;20597;-76
2022/01/19 02:05:55;;;;;;;8.10;4.37;;;1.30;99.90;;;;;;5020509;28;20219;-76
2022/01/19 02:08:23;;;;;;;7.57;4.47;;;1.20;99.90;;;;;;5020031;28;20184;-76
2022/01/19 02:11:17;;;;;;;8.13;4.03;;;1.30;99.90;;;;;;5020164;28;20281;-76
2022/01/19 02:22:00;;;;;;;6.77;5.03;;;1.10;99.90;;;;;;5038181;28;20251;-76
2022/01/19 02:24:30;;;;;;;8.40;4.83;;;1.10;99.90;;;;;;5020143;28;20176;-76
2022/01/19 02:28:56;;;;;;;8.87;5.27;;;1.10;99.90;;;;;;5037863;28;20638;-76
2022/01/19 02:30:39;;;;;;;7.43;4.97;;;1.10;99.90;;;;;;5037336;28;20588;-76
2022/01/19 02:41:06;;;;;;;12.63;5.60;;;1.30;99.90;;;;;;5037366;28;20661;-76
2022/01/19 02:43:33;;;;;;;16.47;6.07;;;1.30;99.90;;;;;;5020456;28;20210;-76
2022/01/19 02:51:26;;;;;;;10.93;6.73;;;1.40;99.90;;;;;;5037533;28;20254;-76
2022/01/19 02:53:52;;;;;;;9.83;6.40;;;1.50;99.90;;;;;;5037133;28;20193;-76
2022/01/19 02:56:25;;;;;;;10.73;6.70;;;1.50;99.90;;;;;;5037182;28;20184;-76
2022/01/19 02:58:56;;;;;;;14.83;7.00;;;1.60;99.90;;;;;;5019646;28;20683;-76
2022/01/19 03:09:25;;;;;;;12.97;8.63;;;1.90;99.90;;;;;;5037081;28;20223;-76
2022/01/19 03:11:51;;;;;;;13.33;10.27;;;2.00;99.90;;;;;;5036658;28;20184;-76
2022/01/19 03:14:17;;;;;;;14.07;10.70;;;2.10;99.90;;;;;;5018756;28;20188;-76
2022/01/19 03:16:44;;;;;;;12.60;11.00;;;2.10;99.90;;;;;;5036625;28;20182;-76
2022/01/19 03:19:11;;;;;;;14.97;11.77;;;2.20;99.90;;;;;;5019083;28;20295;-76
2022/01/19 03:21:36;;;;;;;17.17;12.67;;;2.20;99.90;;;;;;5018950;28;20216;-76
2022/01/19 03:24:03;;;;;;;16.47;12.70;;;2.40;99.90;;;;;;5036642;28;20673;-76
2022/01/19 03:26:28;;;;;;;15.57;13.17;;;2.40;99.90;;;;;;5036205;28;20255;-76
2022/01/19 03:28:54;;;;;;;20.03;13.10;;;2.50;99.90;;;;;;5036092;28;20227;-76
2022/01/19 03:31:19;;;;;;;20.10;13.47;;;2.50;99.90;;;;;;5018650;28;20212;-76
2022/01/19 03:33:45;;;;;;;17.87;13.13;;;2.60;99.90;;;;;;5018602;28;20189;-76
2022/01/19 03:36:11;;;;;;;16.53;13.23;;;2.60;99.90;;;;;;5018135;28;20184;-76
2022/01/19 03:38:37;;;;;;;16.50;13.47;;;2.60;99.90;;;;;;5035439;28;20229;-76
2022/01/19 03:41:03;;;;;;;20.67;13.53;;;2.60;99.90;;;;;;5036156;28;20177;-76
2022/01/19 03:43:28;;;;;;;15.97;12.40;;;2.70;99.90;;;;;;5035656;28;20647;-76
2022/01/19 03:45:57;;;;;;;15.33;12.17;;;2.70;99.90;;;;;;5018350;28;20192;-76
2022/01/19 03:50:55;;;;;;;14.93;12.60;;;2.80;99.90;;;;;;5035168;28;20246;-76
2022/01/19 03:53:21;;;;;;;17.00;13.60;;;2.90;99.90;;;;;;5017769;28;20572;-76
2022/01/19 03:55:46;;;;;;;13.87;12.13;;;2.90;99.90;;;;;;5017315;28;20720;-76
2022/01/19 03:58:12;;;;;;;16.50;12.00;;;2.90;99.90;;;;;;5034060;28;20687;-75
2022/01/19 04:00:42;;;;;;;14.87;13.30;;;2.90;99.90;;;;;;5035316;28;20215;-76
2022/01/19 04:03:11;;;;;;;18.00;12.87;;;3.00;99.90;;;;;;5035914;28;20693;-76
2022/01/19 04:05:55;;;;;;;15.27;11.57;;;3.00;99.90;;;;;;5034757;28;20231;-76
2022/01/19 04:08:21;;;;;;;15.70;12.30;;;3.10;99.90;;;;;;5035538;28;20200;-76
2022/01/19 04:10:47;;;;;;;16.90;12.33;;;3.10;99.90;;;;;;5018638;28;20243;-77
2022/01/19 04:15:49;;;;;;;16.60;14.13;;;3.20;99.90;;;;;;5037927;28;20573;-78
2022/01/19 04:18:14;;;;;;;17.00;13.73;;;3.20;99.90;;;;;;5036885;28;20711;-75
2022/01/19 04:20:42;;;;;;;18.87;14.30;;;3.30;99.90;;;;;;5017701;28;20212;-75
2022/01/19 04:23:08;;;;;;;24.97;15.50;;;3.30;99.90;;;;;;5017677;28;20659;-75
2022/01/19 04:25:34;;;;;;;20.77;15.53;;;3.30;99.90;;;;;;5017621;28;20190;-74
2022/01/19 04:28:06;;;;;;;26.67;17.47;;;3.40;99.90;;;;;;5035178;28;20188;-75
2022/01/19 04:30:32;;;;;;;32.57;18.77;;;3.50;99.90;;;;;;5016531;28;20226;-75
2022/01/19 04:35:27;;;;;;;35.67;19.13;;;3.60;99.90;;;;;;5034191;28;20184;-75
2022/01/19 04:46:11;;;;;;;35.23;18.37;;;3.80;99.90;;;;;;5033431;28;20595;-76
2022/01/19 04:49:02;;;;;;;31.03;15.40;;;3.80;99.90;;;;;;5015566;28;20168;-76
2022/01/19 05:01:35;;;;;;;26.67;15.83;;;3.70;99.90;;;;;;5033985;28;20256;-76
2022/01/19 05:03:05;;;;;;;27.53;15.50;;;3.70;99.90;;;;;;5035066;28;20188;-75
2022/01/19 05:05:36;;;;;;;27.30;14.70;;;3.70;99.90;;;;;;5026806;28;20625;-76
2022/01/19 05:08:19;;;;;;;25.77;16.13;;;3.70;99.90;;;;;;5043202;28;20168;-76
2022/01/19 05:13:31;;;;;;;23.70;14.47;;;3.70;99.90;;;;;;5049102;28;20255;-76
2022/01/19 05:15:57;;;;;;;23.10;13.87;;;3.80;99.90;;;;;;5048257;28;20252;-75
2022/01/19 05:18:23;;;;;;;23.43;14.83;;;3.70;99.90;;;;;;5041387;28;20254;-76
2022/01/19 05:20:49;;;;;;;19.20;13.27;;;3.80;99.90;;;;;;5048976;28;20200;-76
2022/01/19 05:23:16;;;;;;;22.90;13.97;;;3.80;99.90;;;;;;5053210;28;20184;-76
2022/01/19 05:25:42;;;;;;;17.77;13.23;;;3.80;99.90;;;;;;5052413;28;20192;-75
2022/01/19 05:28:08;;;;;;;19.77;13.20;;;3.80;99.90;;;;;;5038140;28;20184;-76
2022/01/19 05:30:33;;;;;;;17.10;13.40;;;3.80;99.90;;;;;;5020381;28;20689;-75
2022/01/19 05:32:59;;;;;;;14.13;11.53;;;3.80;99.90;;;;;;5037280;28;20242;-75
2022/01/19 05:35:24;;;;;;;14.77;11.77;;;3.80;99.90;;;;;;5019015;28;20180;-75
2022/01/19 05:37:50;;;;;;;17.00;12.63;;;3.80;99.90;;;;;;5036990;28;20684;-75
2022/01/19 05:40:17;;;;;;;17.40;11.33;;;3.80;99.90;;;;;;5018814;28;20220;-75
2022/01/19 05:42:43;;;;;;;14.83;11.57;;;3.90;99.90;;;;;;5036679;28;20203;-75
2022/01/19 05:45:09;;;;;;;15.90;12.33;;;3.80;99.90;;;;;;5036990;28;20204;-75
2022/01/19 05:47:35;;;;;;;13.10;11.40;;;3.90;99.90;;;;;;5036584;28;20191;-75
2022/01/19 05:50:02;;;;;;;16.27;12.30;;;3.90;99.90;;;;;;5018743;28;20299;-75
2022/01/19 05:52:28;;;;;;;15.40;11.37;;;3.90;99.90;;;;;;5018940;28;20207;-75
2022/01/19 05:54:53;;;;;;;12.87;11.03;;;3.90;99.90;;;;;;5018783;28;20203;-75
2022/01/19 05:57:19;;;;;;;13.63;11.37;;;3.90;99.90;;;;;;5036667;28;20227;-75
2022/01/19 05:59:44;;;;;;;12.60;10.77;;;3.90;99.90;;;;;;5036283;28;20216;-74
2022/01/19 06:02:11;;;;;;;13.10;10.37;;;3.90;99.90;;;;;;5036372;28;20180;-74
2022/01/19 06:04:37;;;;;;;13.73;11.00;;;3.90;99.90;;;;;;5036484;28;20208;-75
2022/01/19 06:07:03;;;;;;;13.53;11.53;;;3.90;99.90;;;;;;5018800;28;20215;-76
2022/01/19 06:09:34;;;;;;;17.60;11.77;;;3.90;99.90;;;;;;5036353;28;20677;-75
2022/01/19 06:12:04;;;;;;;17.03;12.10;;;4.00;99.90;;;;;;5018367;28;20603;-75
2022/01/19 06:14:30;;;;;;;17.90;13.00;;;4.00;99.90;;;;;;5036079;28;20637;-74
2022/01/19 06:16:55;;;;;;;21.00;12.30;;;4.00;99.90;;;;;;5018338;28;20180;-75
2022/01/19 06:19:21;;;;;;;18.10;11.77;;;4.00;99.90;;;;;;5018435;28;20262;-75
2022/01/19 06:21:46;;;;;;;14.93;12.23;;;4.00;99.90;;;;;;5018263;28;20274;-75
2022/01/19 06:24:12;;;;;;;16.23;11.67;;;4.00;99.90;;;;;;5035499;28;20183;-75
2022/01/19 06:26:38;;;;;;;14.83;11.43;;;4.00;99.90;;;;;;5036174;28;20211;-76
2022/01/19 06:29:04;;;;;;;17.40;11.43;;;4.00;99.90;;;;;;5036298;28;20275;-77
2022/01/19 06:31:31;;;;;;;17.23;10.57;;;3.90;99.90;;;;;;5036121;28;20640;-76
2022/01/19 06:33:56;;;;;;;16.70;11.27;;;3.90;99.90;;;;;;5018841;28;20207;-76
2022/01/19 06:36:22;;;;;;;14.83;10.73;;;3.90;99.90;;;;;;5037050;28;20187;-77
2022/01/19 06:38:48;;;;;;;12.13;10.23;;;3.90;99.90;;;;;;5036189;28;20734;-76
2022/01/19 06:41:13;;;;;;;16.33;11.83;;;3.90;99.90;;;;;;5018722;28;20192;-76
2022/01/19 06:43:39;;;;;;;13.83;11.00;;;3.90;99.90;;;;;;5037266;28;20192;-76
2022/01/19 06:46:04;;;;;;;15.27;11.50;;;3.90;99.90;;;;;;5037438;28;20318;-76
2022/01/19 06:48:30;;;;;;;16.97;11.67;;;3.90;99.90;;;;;;5036794;28;20238;-75
2022/01/19 06:50:57;;;;;;;16.13;11.50;;;3.90;99.90;;;;;;5018556;28;20227;-76
2022/01/19 06:53:22;;;;;;;14.57;11.03;;;3.90;99.90;;;;;;5038498;28;20184;-77
2022/01/19 06:55:48;;;;;;;16.77;11.53;;;3.90;99.90;;;;;;5036936;28;20172;-76
2022/01/19 06:58:13;;;;;;;17.03;11.90;;;3.90;99.90;;;;;;5019439;28;20180;-76
2022/01/19 07:00:39;;;;;;;16.33;11.07;;;3.90;99.90;;;;;;5018665;28;20208;-76
2022/01/19 07:03:05;;;;;;;17.73;12.23;;;3.90;99.90;;;;;;5018433;28;20184;-76
2022/01/19 07:05:30;;;;;;;15.20;11.97;;;3.90;99.90;;;;;;5036413;28;20197;-76
2022/01/19 07:07:57;;;;;;;16.50;12.40;;;3.90;99.90;;;;;;5018271;28;20219;-76
2022/01/19 07:10:23;;;;;;;14.83;11.40;;;3.90;99.90;;;;;;5018220;28;20261;-77
2022/01/19 07:12:50;;;;;;;16.50;11.53;;;3.90;99.90;;;;;;5018554;28;20306;-76
2022/01/19 07:15:16;;;;;;;14.90;11.60;;;3.90;99.90;;;;;;5018102;28;20237;-76
2022/01/19 07:17:41;;;;;;;13.97;11.60;;;3.90;99.90;;;;;;5018515;28;20188;-76
2022/01/19 07:20:07;;;;;;;17.43;13.33;;;3.90;99.90;;;;;;5036623;28;20546;-77
2022/01/19 07:22:33;;;;;;;16.20;12.63;;;3.90;99.90;;;;;;5018417;28;20194;-77
2022/01/19 07:24:59;;;;;;;16.80;12.00;;;3.90;99.90;;;;;;5019247;28;20246;-76
2022/01/19 07:27:25;;;;;;;17.33;12.40;;;3.90;99.90;;;;;;5019484;28;20195;-76
2022/01/19 07:29:51;;;;;;;17.20;12.77;;;3.90;99.90;;;;;;5036130;28;20216;-77
2022/01/19 07:32:17;;;;;;;19.20;13.00;;;3.90;99.90;;;;;;5035691;28;20255;-77
2022/01/19 07:34:42;;;;;;;18.50;12.37;;;3.90;99.90;;;;;;5017742;28;20192;-77
2022/01/19 07:37:08;;;;;;;15.53;11.40;;;3.90;99.90;;;;;;5036069;28;20560;-77
2022/01/19 07:39:34;;;;;;;19.13;12.53;;;3.90;99.90;;;;;;5036065;28;20223;-76
2022/01/19 07:41:59;;;;;;;16.60;12.57;;;3.90;99.90;;;;;;5034459;28;20595;-75
2022/01/19 07:44:25;;;;;;;16.50;12.10;;;3.90;99.90;;;;;;5034461;28;20185;-75
2022/01/19 07:46:53;;;;;;;17.70;12.73;;;3.90;99.90;;;;;;5016810;28;20203;-76
2022/01/19 07:49:19;;;;;;;16.80;12.37;;;3.90;99.90;;;;;;5034426;28;20204;-75
2022/01/19 07:51:45;;;;;;;17.80;13.10;;;3.90;99.90;;;;;;5034723;28;20184;-75
2022/01/19 07:54:10;;;;;;;15.53;11.80;;;3.90;99.90;;;;;;5016843;28;20180;-75
2022/01/19 07:56:36;;;;;;;16.63;13.30;;;3.90;99.90;;;;;;5016819;28;20185;-75
2022/01/19 07:59:01;;;;;;;19.40;12.93;;;3.90;99.90;;;;;;5016642;28;20197;-75
2022/01/19 08:01:30;;;;;;;19.63;13.67;;;3.90;99.90;;;;;;5034823;28;20649;-75
2022/01/19 08:03:58;;;;;;;19.47;14.57;;;3.90;99.90;;;;;;5035378;28;20260;-75
2022/01/19 08:06:24;;;;;;;17.50;13.33;;;3.90;99.90;;;;;;5036447;28;20203;-75
2022/01/19 08:08:49;;;;;;;18.33;13.57;;;3.90;99.90;;;;;;5035665;28;20549;-75
2022/01/19 08:11:15;;;;;;;18.30;13.37;;;3.90;99.90;;;;;;5035811;28;20580;-75
2022/01/19 08:13:40;;;;;;;17.03;13.73;;;3.90;99.90;;;;;;5018089;28;20187;-75
2022/01/19 08:16:06;;;;;;;19.17;14.03;;;3.90;99.90;;;;;;5035228;28;20638;-75
2022/01/19 08:18:31;;;;;;;15.63;13.47;;;3.90;99.90;;;;;;5035284;28;20620;-75
2022/01/19 08:20:57;;;;;;;19.70;12.83;;;4.00;99.90;;;;;;5035962;28;20184;-75
2022/01/19 08:23:22;;;;;;;20.20;14.47;;;4.10;99.90;;;;;;5035755;28;20211;-75
2022/01/19 08:25:48;;;;;;;15.77;13.10;;;4.00;99.90;;;;;;5036247;28;20188;-75
2022/01/19 08:28:14;;;;;;;18.30;14.10;;;4.00;99.90;;;;;;5035732;28;20682;-74
2022/01/19 08:30:39;;;;;;;19.60;14.23;;;4.00;99.90;;;;;;5017983;28;20208;-75
2022/01/19 08:33:05;;;;;;;18.60;13.63;;;4.00;99.90;;;;;;5035809;28;20211;-75
2022/01/19 08:35:30;;;;;;;17.90;14.67;;;4.00;99.90;;;;;;5035911;28;20616;-75
2022/01/19 08:37:56;;;;;;;17.53;13.83;;;4.00;99.90;;;;;;5016743;28;20609;-76
2022/01/19 08:40:27;;;;;;;17.30;14.30;;;4.00;99.90;;;;;;5016365;28;20216;-75
2022/01/19 08:42:53;;;;;;;17.10;13.97;;;4.10;99.90;;;;;;5034446;28;20163;-75
2022/01/19 08:45:19;;;;;;;15.87;13.43;;;4.10;99.90;;;;;;5016556;28;20303;-76
2022/01/19 08:47:46;;;;;;;19.10;14.20;;;4.10;99.90;;;;;;5034784;28;20244;-76
2022/01/19 08:50:14;;;;;;;19.13;13.47;;;4.10;99.90;;;;;;5016391;28;20223;-76
2022/01/19 08:52:39;;;;;;;17.37;13.70;;;4.10;99.90;;;;;;5016485;28;20195;-75
2022/01/19 08:55:06;;;;;;;18.23;12.80;;;4.10;99.90;;;;;;5016190;28;20176;-76
2022/01/19 08:57:31;;;;;;;17.93;12.67;;;4.10;99.90;;;;;;5034377;28;20708;-76
2022/01/19 08:59:57;;;;;;;16.13;12.00;;;4.10;99.90;;;;;;5016689;28;20212;-76
2022/01/19 09:02:22;;;;;;;15.53;12.43;;;4.10;99.90;;;;;;5034369;28;20176;-76
2022/01/19 09:04:48;;;;;;;15.40;12.40;;;4.10;99.90;;;;;;5016391;28;20238;-76
2022/01/19 09:07:14;;;;;;;17.20;12.10;;;4.10;99.90;;;;;;5016349;28;20184;-75
2022/01/19 09:09:40;;;;;;;15.80;12.50;;;4.20;99.90;;;;;;5015507;28;20219;-75
2022/01/19 09:12:07;;;;;;;14.23;12.03;;;4.10;99.90;;;;;;5015973;28;20181;-75
2022/01/19 09:14:32;;;;;;;17.43;11.67;;;4.20;99.90;;;;;;5016456;28;20184;-75
2022/01/19 09:16:58;;;;;;;15.20;12.67;;;4.20;99.90;;;;;;5034302;28;20327;-75
2022/01/19 09:19:24;;;;;;;19.93;13.90;;;4.20;99.90;;;;;;5016576;28;20688;-75
2022/01/19 09:21:50;;;;;;;15.87;12.77;;;4.20;99.90;;;;;;5017061;28;20275;-75
2022/01/19 09:24:16;;;;;;;16.83;13.20;;;4.20;99.90;;;;;;5016858;28;20269;-75
2022/01/19 09:26:42;;;;;;;18.97;13.73;;;4.20;99.90;;;;;;5017090;28;20687;-75
2022/01/19 09:29:08;;;;;;;17.87;13.93;;;4.20;99.90;;;;;;5034444;28;20288;-75
2022/01/19 09:31:35;;;;;;;16.80;12.93;;;4.20;99.90;;;;;;5017062;28;20714;-75
2022/01/19 09:34:14;;;;;;;17.30;13.87;;;4.20;99.90;;;;;;5035117;28;20239;-75
2022/01/19 09:36:46;;;;;;;16.63;13.10;;;4.20;99.90;;;;;;5016338;28;20180;-76
2022/01/19 09:39:21;;;;;;;17.43;13.77;;;4.20;99.90;;;;;;5033744;28;20768;-76
2022/01/19 09:41:48;;;;;;;15.77;12.53;;;4.20;99.90;;;;;;5033782;28;20199;-75
2022/01/19 09:44:15;;;;;;;19.03;13.10;;;4.30;99.90;;;;;;5033520;28;20242;-75
2022/01/19 09:46:42;;;;;;;17.17;13.27;;;4.30;99.90;;;;;;5033336;28;20557;-75
2022/01/19 09:49:08;;;;;;;14.17;12.33;;;4.30;99.90;;;;;;5015648;28;20760;-75
2022/01/19 09:51:35;;;;;;;17.13;13.60;;;4.30;99.90;;;;;;5033528;28;20208;-75
2022/01/19 09:54:01;;;;;;;17.23;13.07;;;4.30;99.90;;;;;;5032956;28;20185;-75
2022/01/19 09:56:27;;;;;;;17.20;13.87;;;4.30;99.90;;;;;;5032893;28;20725;-76
2022/01/19 09:58:53;;;;;;;17.03;13.20;;;4.30;99.90;;;;;;5017320;28;20720;-76
2022/01/19 10:01:23;;;;;;;15.63;13.67;;;4.30;99.90;;;;;;5019136;28;20193;-76
2022/01/19 10:03:50;;;;;;;15.93;13.03;;;4.30;99.90;;;;;;5036579;28;20179;-75
2022/01/19 10:06:22;;;;;;;16.77;13.53;;;4.30;99.90;;;;;;5036547;28;20187;-75
2022/01/19 10:08:54;;;;;;;24.90;14.40;;;4.30;99.90;;;;;;5036679;28;20175;-75
2022/01/19 10:16:58;;;;;;;16.60;13.80;;;4.30;99.90;;;;;;5019293;28;20689;-76
2022/01/19 10:17:06;;;;;;;17.67;13.13;;;4.30;99.90;;;;;;5036498;28;20180;-76
2022/01/19 10:19:35;;;;;;;16.83;13.23;;;4.40;99.90;;;;;;5036614;28;20203;-75
2022/01/19 10:22:15;;;;;;;18.63;13.53;;;4.40;99.90;;;;;;5036554;28;20176;-76
2022/01/19 10:24:48;;;;;;;15.93;13.43;;;4.40;99.90;;;;;;5036218;28;20626;-76
2022/01/19 10:27:43;;;;;;;17.33;14.10;;;4.40;99.90;;;;;;5036432;28;20180;-75
2022/01/19 10:30:08;;;;;;;19.10;12.97;;;4.40;99.90;;;;;;5036040;28;20208;-75
2022/01/19 10:32:50;;;;;;;16.20;13.00;;;4.40;99.90;;;;;;5036036;28;20180;-76
2022/01/19 10:35:29;;;;;;;18.17;14.00;;;4.40;99.90;;;;;;5036471;28;20691;-76
2022/01/19 10:38:24;;;;;;;16.83;13.07;;;4.50;99.90;;;;;;5036097;28;20176;-75
2022/01/19 10:40:59;;;;;;;19.77;13.73;;;4.50;99.90;;;;;;5035837;28;20342;-75
2022/01/19 10:43:29;;;;;;;17.07;13.93;;;4.50;99.90;;;;;;5036015;28;20183;-75
2022/01/19 10:45:56;;;;;;;16.33;12.87;;;4.50;99.90;;;;;;5035675;28;20271;-75
2022/01/19 10:48:37;;;;;;;18.13;13.30;;;4.60;99.90;;;;;;5035708;28;20246;-76
2022/01/19 10:51:07;;;;;;;16.27;12.93;;;4.60;99.90;;;;;;5035406;28;20199;-77
2022/01/19 10:53:33;;;;;;;15.57;12.73;;;4.60;99.90;;;;;;5035384;28;20177;-76
2022/01/19 10:55:59;;;;;;;15.13;12.73;;;4.60;99.90;;;;;;5036031;28;20207;-76
2022/01/19 10:58:24;;;;;;;17.33;13.03;;;4.60;99.90;;;;;;5017861;28;20258;-76
2022/01/19 11:00:52;;;;;;;15.67;12.43;;;4.70;99.90;;;;;;5017539;28;20696;-76
2022/01/19 11:03:20;;;;;;;16.80;12.67;;;4.70;99.90;;;;;;5017548;28;20196;-75
2022/01/19 11:05:49;;;;;;;15.50;11.53;;;4.60;99.90;;;;;;5035743;28;20587;-76
2022/01/19 11:08:17;;;;;;;16.10;11.97;;;4.70;99.90;;;;;;5035302;28;20180;-76
2022/01/19 11:10:48;;;;;;;14.83;12.70;;;4.70;99.90;;;;;;5034027;28;20270;-76
2022/01/19 11:13:15;;;;;;;17.17;12.50;;;4.70;99.90;;;;;;5035372;28;20243;-76
2022/01/19 11:15:42;;;;;;;16.80;12.60;;;4.70;99.90;;;;;;5034969;28;20204;-76
2022/01/19 11:18:08;;;;;;;14.23;12.33;;;4.70;99.90;;;;;;5035181;28;20207;-76
2022/01/19 11:20:43;;;;;;;16.60;12.93;;;4.80;99.90;;;;;;5035036;28;20218;-76
2022/01/19 11:23:30;;;;;;;14.47;12.00;;;4.70;99.90;;;;;;5035027;28;20175;-76
2022/01/19 11:26:01;;;;;;;14.63;11.87;;;4.80;99.90;;;;;;5017227;28;20246;-76
2022/01/19 11:28:35;;;;;;;14.70;12.50;;;4.70;99.90;;;;;;5017290;28;20215;-76
2022/01/19 11:31:05;;;;;;;14.37;11.43;;;4.80;99.90;;;;;;5034919;28;20623;-76
2022/01/19 11:33:32;;;;;;;16.27;12.23;;;4.80;99.90;;;;;;5017440;28;20188;-76
2022/01/19 11:36:05;;;;;;;14.63;11.77;;;4.70;99.90;;;;;;5017006;28;20192;-76
2022/01/19 11:38:43;;;;;;;17.00;13.53;;;4.80;99.90;;;;;;5034828;28;20177;-76
2022/01/19 11:41:09;;;;;;;19.37;12.60;;;4.80;99.90;;;;;;5034493;28;20239;-76
2022/01/19 11:43:47;;;;;;;15.53;11.70;;;4.80;99.90;;;;;;5016943;28;20653;-76
2022/01/19 11:46:34;;;;;;;16.67;13.57;;;4.80;99.90;;;;;;5034849;28;20184;-76
2022/01/19 11:49:02;;;;;;;18.97;12.70;;;4.80;99.90;;;;;;5024845;28;20235;-77
2022/01/19 11:51:35;;;;;;;17.30;13.97;;;4.80;99.90;;;;;;5016761;28;20270;-76
2022/01/19 11:54:07;;;;;;;18.42;14.45;;;4.80;99.90;;;;;;5034293;28;20488;-76
2022/01/19 11:56:53;;;;;;;17.17;13.63;;;4.80;99.90;;;;;;5034702;28;20242;-75
2022/01/19 11:59:19;;;;;;;17.07;13.63;;;4.80;99.90;;;;;;5033922;28;20236;-76
2022/01/19 12:01:44;;;;;;;16.57;13.30;;;4.80;99.90;;;;;;5034223;28;20670;-76
2022/01/19 12:04:14;;;;;;;15.60;13.00;;;4.80;99.90;;;;;;5034281;28;20314;-76
2022/01/19 12:06:42;;;;;;;16.40;12.90;;;4.80;99.90;;;;;;5034265;28;20176;-76
2022/01/19 12:09:11;;;;;;;15.27;12.80;;;4.80;99.90;;;;;;5016191;28;20208;-76
2022/01/19 12:11:39;;;;;;;16.93;13.80;;;4.80;99.90;;;;;;5016451;28;20212;-76
2022/01/19 12:19:06;;;;;;;15.97;13.50;;;4.80;99.90;;;;;;5034424;28;20230;-76
2022/01/19 12:21:32;;;;;;;17.03;13.57;;;4.80;99.90;;;;;;5016644;28;20187;-76
2022/01/19 12:24:22;;;;;;;18.83;14.13;;;4.80;99.90;;;;;;5016946;28;20188;-76
2022/01/19 12:27:15;;;;;;;18.60;13.83;;;4.80;99.90;;;;;;5034481;28;20296;-76
2022/01/19 12:29:50;;;;;;;19.57;13.97;;;4.80;99.90;;;;;;5015433;28;20210;-76
2022/01/19 12:32:16;;;;;;;16.37;14.13;;;4.80;99.90;;;;;;5034982;28;20179;-76
2022/01/19 12:34:44;;;;;;;18.20;14.13;;;4.80;99.90;;;;;;5016664;28;20267;-75
2022/01/19 12:37:11;;;;;;;18.60;14.77;;;4.80;99.90;;;;;;5018143;28;20189;-75
2022/01/19 12:39:40;;;;;;;18.20;14.43;;;4.80;99.90;;;;;;5017761;28;20212;-75
2022/01/19 12:42:39;;;;;;;18.83;14.13;;;4.80;99.90;;;;;;5035625;28;20263;-75
2022/01/19 12:45:01;;;;;;;18.17;13.77;;;4.80;99.90;;;;;;5035371;28;20215;-75
2022/01/19 12:47:27;;;;;;;17.53;14.03;;;4.80;99.90;;;;;;5034157;28;20180;-76
2022/01/19 12:49:59;;;;;;;16.07;14.20;;;4.80;99.90;;;;;;5035905;28;20219;-76
2022/01/19 12:52:30;;;;;;;17.20;14.53;;;4.80;99.90;;;;;;5035787;28;20164;-76
2022/01/19 12:55:00;;;;;;;20.93;14.70;;;4.80;99.90;;;;;;5017576;28;20184;-76
2022/01/19 12:57:29;;;;;;;16.67;14.10;;;4.80;99.90;;;;;;5035989;28;20173;-75
2022/01/19 12:59:55;;;;;;;20.03;14.40;;;4.80;99.90;;;;;;5035228;28;20219;-76
2022/01/19 13:02:28;;;;;;;21.50;14.93;;;4.90;99.90;;;;;;5017753;28;20256;-75
2022/01/19 13:05:04;;;;;;;21.47;14.53;;;4.90;99.90;;;;;;5017927;28;20255;-75
2022/01/19 13:07:31;;;;;;;21.17;14.87;;;4.90;99.90;;;;;;5016946;28;20199;-75
2022/01/19 13:12:55;;;;;;;18.67;14.07;;;4.90;99.90;;;;;;5035205;28;20628;-75
2022/01/19 13:15:21;;;;;;;19.07;14.70;;;4.80;99.90;;;;;;5034910;28;20243;-75
2022/01/19 13:17:52;;;;;;;20.00;14.13;;;4.80;99.90;;;;;;5017956;28;20206;-76
2022/01/19 13:20:23;;;;;;;18.83;14.80;;;4.80;99.90;;;;;;5017295;28;20298;-75
2022/01/19 13:22:54;;;;;;;21.93;13.77;;;4.80;99.90;;;;;;5034835;28;20182;-76
2022/01/19 13:25:22;;;;;;;19.90;14.93;;;4.80;99.90;;;;;;5016919;28;20723;-75
2022/01/19 13:27:50;;;;;;;19.27;14.07;;;4.80;99.90;;;;;;5016564;28;20287;-76
2022/01/19 13:30:16;;;;;;;17.73;13.60;;;4.80;99.90;;;;;;5034678;28;20209;-75
2022/01/19 13:32:42;;;;;;;19.13;13.80;;;4.80;99.90;;;;;;5036226;28;20192;-75
2022/01/19 13:35:10;;;;;;;18.07;14.57;;;4.80;99.90;;;;;;5038969;28;20180;-75
2022/01/19 13:37:38;;;;;;;16.73;14.03;;;4.80;99.90;;;;;;5020945;28;20208;-75
2022/01/19 13:40:13;;;;;;;23.73;16.00;;;4.80;99.90;;;;;;5038948;28;20216;-75
2022/01/19 13:42:42;;;;;;;19.63;15.30;;;4.80;99.90;;;;;;5038735;28;20233;-75
2022/01/19 13:45:14;;;;;;;20.40;15.13;;;4.80;99.90;;;;;;5038361;28;20252;-75
2022/01/19 13:47:55;;;;;;;19.17;14.77;;;4.80;99.90;;;;;;5039043;28;20785;-75
2022/01/19 13:50:22;;;;;;;19.53;14.50;;;4.80;99.90;;;;;;5021089;28;20303;-75
2022/01/19 13:52:48;;;;;;;23.70;16.20;;;4.90;99.90;;;;;;5038406;28;20575;-76
2022/01/19 13:55:22;;;;;;;18.43;14.00;;;4.80;99.90;;;;;;5038566;28;20183;-76
2022/01/19 13:57:48;;;;;;;21.07;15.40;;;4.80;99.90;;;;;;5039204;28;20172;-76
2022/01/19 14:00:20;;;;;;;19.67;15.47;;;4.80;99.90;;;;;;5020599;28;20211;-75